createdAt,value
2018-07-27T00:00:32.395Z,9.00
2018-07-27T00:01:32.550Z,11.40
2018-07-27T00:02:32.708Z,6.90
2018-07-27T00:03:32.867Z,10.30
2018-07-27T00:04:33.025Z,12.70
2018-07-27T00:05:33.182Z,9.20
2018-07-27T00:06:33.340Z,7.40
2018-07-27T00:07:33.500Z,9.50
2018-07-27T00:08:33.656Z,11.30
2018-07-27T00:09:33.816Z,8.50
2018-07-27T00:10:33.969Z,9.20
2018-07-27T00:11:34.127Z,9.40
2018-07-27T00:12:34.286Z,8.70
2018-07-27T00:13:34.439Z,9.80
2018-07-27T00:14:34.595Z,9.30
2018-07-27T00:15:34.751Z,10.00
2018-07-27T00:16:34.908Z,8.10
2018-07-27T00:17:35.065Z,8.40
2018-07-27T00:18:35.221Z,8.80
2018-07-27T00:19:35.381Z,9.10
2018-07-27T00:20:35.535Z,6.90
2018-07-27T00:21:35.694Z,7.90
2018-07-27T00:22:35.857Z,8.00
2018-07-27T00:23:36.008Z,9.50
2018-07-27T00:24:36.165Z,9.60
2018-07-27T00:25:36.320Z,9.00
2018-07-27T00:26:36.476Z,10.60
2018-07-27T00:27:36.633Z,9.50
2018-07-27T00:28:36.789Z,8.30
2018-07-27T00:29:36.946Z,10.00
2018-07-27T00:30:37.102Z,10.50
2018-07-27T00:31:37.257Z,11.80
2018-07-27T00:32:37.417Z,10.90
2018-07-27T00:33:37.574Z,12.90
2018-07-27T00:34:37.729Z,10.30
2018-07-27T00:35:37.885Z,10.30
2018-07-27T00:36:38.042Z,10.40
2018-07-27T00:37:38.198Z,11.10
2018-07-27T00:38:38.355Z,9.00
2018-07-27T00:39:38.513Z,11.00
2018-07-27T00:40:38.669Z,8.10
2018-07-27T00:41:38.827Z,9.50
2018-07-27T00:42:38.984Z,8.60
2018-07-27T00:43:39.137Z,7.80
2018-07-27T00:44:39.297Z,8.10
2018-07-27T00:45:39.453Z,8.00
2018-07-27T00:46:39.617Z,6.80
2018-07-27T00:47:39.767Z,7.80
2018-07-27T00:48:39.922Z,8.40
2018-07-27T00:49:40.079Z,10.10
2018-07-27T00:50:40.239Z,9.10
2018-07-27T00:51:40.395Z,8.40
2018-07-27T00:52:40.552Z,10.50
2018-07-27T00:53:40.708Z,8.70
2018-07-27T00:54:40.864Z,8.90
2018-07-27T00:55:41.020Z,8.20
2018-07-27T00:56:41.178Z,8.10
2018-07-27T00:57:41.335Z,7.40
2018-07-27T00:58:41.488Z,8.30
2018-07-27T00:59:41.644Z,10.10
2018-07-27T01:00:41.799Z,7.90
2018-07-27T01:01:41.955Z,7.30
2018-07-27T01:02:42.113Z,9.60
2018-07-27T01:03:42.269Z,9.20
2018-07-27T01:04:42.426Z,8.70
2018-07-27T01:05:42.579Z,9.40
2018-07-27T01:06:42.739Z,9.40
2018-07-27T01:07:42.892Z,10.40
2018-07-27T01:08:43.052Z,9.50
2018-07-27T01:09:43.206Z,8.50
2018-07-27T01:10:43.362Z,9.00
2018-07-27T01:11:43.523Z,7.80
2018-07-27T01:12:43.677Z,8.20
2018-07-27T01:13:43.835Z,8.10
2018-07-27T01:14:43.989Z,7.00
2018-07-27T01:15:44.145Z,8.30
2018-07-27T01:16:44.303Z,8.00
2018-07-27T01:17:44.458Z,9.00
2018-07-27T01:18:44.616Z,7.90
2018-07-27T01:19:44.772Z,8.10
2018-07-27T01:20:44.929Z,8.20
2018-07-27T01:21:45.083Z,9.30
2018-07-27T01:22:45.240Z,10.60
2018-07-27T01:23:45.395Z,8.00
2018-07-27T01:24:45.553Z,9.30
2018-07-27T01:25:45.710Z,10.20
2018-07-27T01:26:45.863Z,8.00
2018-07-27T01:27:46.020Z,10.00
2018-07-27T01:28:46.186Z,8.80
2018-07-27T01:29:46.341Z,8.60
2018-07-27T01:30:46.496Z,8.80
2018-07-27T01:31:46.655Z,9.00
2018-07-27T01:32:46.808Z,7.30
2018-07-27T01:33:46.962Z,8.70
2018-07-27T01:34:47.121Z,7.60
2018-07-27T01:35:47.279Z,7.50
2018-07-27T01:36:47.437Z,8.70
2018-07-27T01:37:47.598Z,10.20
2018-07-27T01:38:47.756Z,7.30
2018-07-27T01:39:47.905Z,8.00
2018-07-27T01:40:48.065Z,7.80
2018-07-27T01:41:48.222Z,9.20
2018-07-27T01:42:48.381Z,7.70
2018-07-27T01:43:48.533Z,8.90
2018-07-27T01:44:48.690Z,11.40
2018-07-27T01:45:48.845Z,10.40
2018-07-27T01:46:49.005Z,10.20
2018-07-27T01:47:49.159Z,10.40
2018-07-27T01:48:49.317Z,11.10
2018-07-27T01:49:49.504Z,10.40
2018-07-27T01:50:49.629Z,10.50
2018-07-27T01:51:49.784Z,10.90
2018-07-27T01:52:49.943Z,8.70
2018-07-27T01:53:50.097Z,9.00
2018-07-27T01:54:50.250Z,9.00
2018-07-27T01:55:50.406Z,8.80
2018-07-27T01:56:50.562Z,9.30
2018-07-27T01:57:50.719Z,8.50
2018-07-27T01:58:50.875Z,8.30
2018-07-27T01:59:51.033Z,8.00
2018-07-27T02:00:51.188Z,7.10
2018-07-27T02:01:51.345Z,9.40
2018-07-27T02:02:51.508Z,10.90
2018-07-27T02:03:51.662Z,9.00
2018-07-27T02:04:51.818Z,10.00
2018-07-27T02:05:52.003Z,8.40
2018-07-27T02:06:52.127Z,7.60
2018-07-27T02:07:52.283Z,8.80
2018-07-27T02:08:52.441Z,9.10
2018-07-27T02:09:52.596Z,8.10
2018-07-27T02:10:52.752Z,10.30
2018-07-27T02:11:52.907Z,10.40
2018-07-27T02:12:53.099Z,8.30
2018-07-27T02:13:53.223Z,8.20
2018-07-27T02:14:53.378Z,8.70
2018-07-27T02:15:53.534Z,10.20
2018-07-27T02:16:53.690Z,8.50
2018-07-27T02:17:53.845Z,7.80
2018-07-27T02:18:54.005Z,9.20
2018-07-27T02:19:54.160Z,7.90
2018-07-27T02:20:54.315Z,9.40
2018-07-27T02:21:54.473Z,10.60
2018-07-27T02:22:54.631Z,11.30
2018-07-27T02:23:54.786Z,10.20
2018-07-27T02:24:54.942Z,10.30
2018-07-27T02:25:55.098Z,11.70
2018-07-27T02:26:55.255Z,11.20
2018-07-27T02:27:55.412Z,9.60
2018-07-27T02:28:55.568Z,11.30
2018-07-27T02:29:55.720Z,10.20
2018-07-27T02:30:55.880Z,9.80
2018-07-27T02:31:56.037Z,10.50
2018-07-27T02:32:56.192Z,10.10
2018-07-27T02:33:56.473Z,10.50
2018-07-27T02:34:56.505Z,10.90
2018-07-27T02:35:56.661Z,9.40
2018-07-27T02:36:56.815Z,8.70
2018-07-27T02:37:56.975Z,8.70
2018-07-27T02:38:57.130Z,9.10
2018-07-27T02:39:57.304Z,9.10
2018-07-27T02:40:57.445Z,10.30
2018-07-27T02:41:57.597Z,10.30
2018-07-27T02:42:57.751Z,8.50
2018-07-27T02:43:57.909Z,9.00
2018-07-27T02:44:58.066Z,8.40
2018-07-27T02:45:58.221Z,9.20
2018-07-27T02:46:58.378Z,8.10
2018-07-27T02:47:58.535Z,8.30
2018-07-27T02:48:58.687Z,9.00
2018-07-27T02:49:58.841Z,8.70
2018-07-27T02:50:58.998Z,7.30
2018-07-27T02:51:59.154Z,9.00
2018-07-27T02:52:59.330Z,8.50
2018-07-27T02:53:59.466Z,9.00
2018-07-27T02:54:59.622Z,9.40
2018-07-27T02:55:59.778Z,9.90
2018-07-27T02:56:59.937Z,10.10
2018-07-27T02:58:00.085Z,9.10
2018-07-27T02:59:00.243Z,8.30
2018-07-27T03:00:00.400Z,8.00
2018-07-27T03:01:00.556Z,7.70
2018-07-27T03:02:00.710Z,7.90
2018-07-27T03:03:00.866Z,8.20
2018-07-27T03:04:01.022Z,7.50
2018-07-27T03:05:01.177Z,8.80
2018-07-27T03:06:01.333Z,7.90
2018-07-27T03:07:01.490Z,8.90
2018-07-27T03:08:01.645Z,9.00
2018-07-27T03:09:01.797Z,7.30
2018-07-27T03:10:01.958Z,7.30
2018-07-27T03:11:02.110Z,8.20
2018-07-27T03:12:02.268Z,7.40
2018-07-27T03:13:02.437Z,7.70
2018-07-27T03:14:02.579Z,8.70
2018-07-27T03:15:02.734Z,9.40
2018-07-27T03:16:02.889Z,8.30
2018-07-27T03:17:03.045Z,6.60
2018-07-27T03:18:03.201Z,7.90
2018-07-27T03:19:03.364Z,7.40
2018-07-27T03:20:03.511Z,8.10
2018-07-27T03:21:03.663Z,8.00
2018-07-27T03:22:03.819Z,8.80
2018-07-27T03:23:03.973Z,6.90
2018-07-27T03:24:04.128Z,7.10
2018-07-27T03:25:04.285Z,6.20
2018-07-27T03:26:04.443Z,6.80
2018-07-27T03:27:04.597Z,8.00
2018-07-27T03:28:04.747Z,9.60
2018-07-27T03:29:04.905Z,7.80
2018-07-27T03:30:05.060Z,8.70
2018-07-27T03:31:05.215Z,7.10
2018-07-27T03:32:05.380Z,8.20
2018-07-27T03:33:05.534Z,7.60
2018-07-27T03:34:05.690Z,7.60
2018-07-27T03:35:05.841Z,9.70
2018-07-27T03:36:05.999Z,9.50
2018-07-27T03:37:06.154Z,10.10
2018-07-27T03:38:06.363Z,9.30
2018-07-27T03:39:06.467Z,8.60
2018-07-27T03:40:06.620Z,11.30
2018-07-27T03:41:06.775Z,10.10
2018-07-27T03:42:06.936Z,9.70
2018-07-27T03:43:07.087Z,9.60
2018-07-27T03:44:07.248Z,10.30
2018-07-27T03:45:07.399Z,10.60
2018-07-27T03:46:07.551Z,8.30
2018-07-27T03:47:07.708Z,11.00
2018-07-27T03:48:07.864Z,9.40
2018-07-27T03:49:08.019Z,9.60
2018-07-27T03:50:08.176Z,10.80
2018-07-27T03:51:08.333Z,9.40
2018-07-27T03:52:08.491Z,10.00
2018-07-27T03:53:08.644Z,10.80
2018-07-27T03:54:08.800Z,8.70
2018-07-27T03:55:08.954Z,10.30
2018-07-27T03:56:09.109Z,10.00
2018-07-27T03:57:09.263Z,9.40
2018-07-27T03:58:09.420Z,10.10
2018-07-27T03:59:09.576Z,10.50
2018-07-27T04:00:09.734Z,11.50
2018-07-27T04:01:09.892Z,11.30
2018-07-27T04:02:10.052Z,11.50
2018-07-27T04:03:10.202Z,12.40
2018-07-27T04:04:10.357Z,11.80
2018-07-27T04:05:10.512Z,14.40
2018-07-27T04:06:10.717Z,13.90
2018-07-27T04:07:10.826Z,12.80
2018-07-27T04:08:10.977Z,12.10
2018-07-27T04:09:11.134Z,13.60
2018-07-27T04:10:11.292Z,10.60
2018-07-27T04:11:11.446Z,10.40
2018-07-27T04:12:11.607Z,11.00
2018-07-27T04:13:11.773Z,8.90
2018-07-27T04:14:11.916Z,8.60
2018-07-27T04:15:12.072Z,9.00
2018-07-27T04:16:12.227Z,8.60
2018-07-27T04:17:12.384Z,8.80
2018-07-27T04:18:12.544Z,10.30
2018-07-27T04:19:12.696Z,9.40
2018-07-27T04:20:12.852Z,9.20
2018-07-27T04:21:13.009Z,8.30
2018-07-27T04:22:13.165Z,8.00
2018-07-27T04:23:13.319Z,9.70
2018-07-27T04:24:13.475Z,11.10
2018-07-27T04:25:13.633Z,9.30
2018-07-27T04:26:13.810Z,11.30
2018-07-27T04:27:13.943Z,12.30
2018-07-27T04:28:14.104Z,8.80
2018-07-27T04:29:14.259Z,10.90
2018-07-27T04:30:14.414Z,10.40
2018-07-27T04:31:14.573Z,9.90
2018-07-27T04:32:14.730Z,10.40
2018-07-27T04:33:14.886Z,10.80
2018-07-27T04:34:15.046Z,10.30
2018-07-27T04:35:15.204Z,11.40
2018-07-27T04:36:15.361Z,9.80
2018-07-27T04:37:15.512Z,10.50
2018-07-27T04:38:15.670Z,8.90
2018-07-27T04:39:15.825Z,11.80
2018-07-27T04:40:15.980Z,11.50
2018-07-27T04:41:16.135Z,12.80
2018-07-27T04:42:16.290Z,14.20
2018-07-27T04:43:16.454Z,14.70
2018-07-27T04:44:16.606Z,13.50
2018-07-27T04:45:16.764Z,14.10
2018-07-27T04:46:16.920Z,13.30
2018-07-27T04:47:17.074Z,17.90
2018-07-27T04:48:17.228Z,15.30
2018-07-27T04:49:17.410Z,16.70
2018-07-27T04:50:17.540Z,15.40
2018-07-27T04:51:17.701Z,13.10
2018-07-27T04:52:17.855Z,11.30
2018-07-27T04:53:18.010Z,10.70
2018-07-27T04:54:18.165Z,12.90
2018-07-27T04:55:18.320Z,13.60
2018-07-27T04:56:18.551Z,11.50
2018-07-27T04:57:18.631Z,11.50
2018-07-27T04:58:18.787Z,10.60
2018-07-27T04:59:18.943Z,8.50
2018-07-27T05:00:19.099Z,10.10
2018-07-27T05:01:19.258Z,9.20
2018-07-27T05:02:19.410Z,9.10
2018-07-27T05:03:19.567Z,8.50
2018-07-27T05:04:19.723Z,9.10
2018-07-27T05:05:19.878Z,8.50
2018-07-27T05:06:20.036Z,8.60
2018-07-27T05:07:20.191Z,9.20
2018-07-27T05:08:20.349Z,8.50
2018-07-27T05:09:20.506Z,11.70
2018-07-27T05:10:20.662Z,8.70
2018-07-27T05:11:20.819Z,10.10
2018-07-27T05:12:20.974Z,11.90
2018-07-27T05:13:21.129Z,11.60
2018-07-27T05:14:21.287Z,10.90
2018-07-27T05:15:21.443Z,11.90
2018-07-27T05:16:21.601Z,13.90
2018-07-27T05:17:21.755Z,12.20
2018-07-27T05:18:21.982Z,16.90
2018-07-27T05:19:22.063Z,13.10
2018-07-27T05:20:22.221Z,15.70
2018-07-27T05:21:22.379Z,13.60
2018-07-27T05:22:22.540Z,18.10
2018-07-27T05:23:22.691Z,12.30
2018-07-27T05:24:22.844Z,11.10
2018-07-27T05:25:23.000Z,10.40
2018-07-27T05:26:23.156Z,10.80
2018-07-27T05:27:23.316Z,9.70
2018-07-27T05:28:23.471Z,10.20
2018-07-27T05:29:23.626Z,8.60
2018-07-27T05:30:23.782Z,10.10
2018-07-27T05:31:23.939Z,9.40
2018-07-27T05:32:24.099Z,8.80
2018-07-27T05:33:24.254Z,9.40
2018-07-27T05:34:24.429Z,7.20
2018-07-27T05:35:24.566Z,8.30
2018-07-27T05:36:24.724Z,9.80
2018-07-27T05:37:24.890Z,9.20
2018-07-27T05:38:25.038Z,10.40
2018-07-27T05:39:25.197Z,10.30
2018-07-27T05:40:25.354Z,10.10
2018-07-27T05:41:25.509Z,10.40
2018-07-27T05:42:25.667Z,11.50
2018-07-27T05:43:25.824Z,9.70
2018-07-27T05:44:25.980Z,9.30
2018-07-27T05:45:26.138Z,9.90
2018-07-27T05:46:26.295Z,8.90
2018-07-27T05:47:26.451Z,9.30
2018-07-27T05:48:26.611Z,9.60
2018-07-27T05:49:26.768Z,7.90
2018-07-27T05:50:26.926Z,9.80
2018-07-27T05:51:27.082Z,11.40
2018-07-27T05:52:27.239Z,9.10
2018-07-27T05:53:27.399Z,8.20
2018-07-27T05:54:27.552Z,9.40
2018-07-27T05:55:27.707Z,8.80
2018-07-27T05:56:27.866Z,8.90
2018-07-27T05:57:28.028Z,10.50
2018-07-27T05:58:28.180Z,10.60
2018-07-27T05:59:28.389Z,11.20
2018-07-27T06:00:28.495Z,8.90
2018-07-27T06:01:28.653Z,9.10
2018-07-27T06:02:28.808Z,9.40
2018-07-27T06:03:28.968Z,7.40
2018-07-27T06:04:29.126Z,8.80
2018-07-27T06:05:29.284Z,11.00
2018-07-27T06:06:29.440Z,9.50
2018-07-27T06:07:29.598Z,10.30
2018-07-27T06:08:29.757Z,9.90
2018-07-27T06:09:29.915Z,9.20
2018-07-27T06:10:30.072Z,7.70
2018-07-27T06:11:30.230Z,8.50
2018-07-27T06:12:30.385Z,9.00
2018-07-27T06:13:30.544Z,9.50
2018-07-27T06:14:30.711Z,8.60
2018-07-27T06:15:30.860Z,10.00
2018-07-27T06:16:31.018Z,7.40
2018-07-27T06:17:31.179Z,8.20
2018-07-27T06:18:31.334Z,8.80
2018-07-27T06:19:31.494Z,7.40
2018-07-27T06:20:31.653Z,7.30
2018-07-27T06:21:31.812Z,8.90
2018-07-27T06:22:31.969Z,8.40
2018-07-27T06:23:32.127Z,9.60
2018-07-27T06:24:32.360Z,8.40
2018-07-27T06:25:32.491Z,8.20
2018-07-27T06:26:32.602Z,7.20
2018-07-27T06:27:32.759Z,8.30
2018-07-27T06:28:32.916Z,9.10
2018-07-27T06:29:33.075Z,6.20
2018-07-27T06:30:33.232Z,8.20
2018-07-27T06:31:33.392Z,7.10
2018-07-27T06:32:33.555Z,7.30
2018-07-27T06:33:33.707Z,9.00
2018-07-27T06:34:33.865Z,6.90
2018-07-27T06:35:34.026Z,9.10
2018-07-27T06:36:34.183Z,7.60
2018-07-27T06:37:34.339Z,6.70
2018-07-27T06:38:34.500Z,7.10
2018-07-27T06:39:34.658Z,7.10
2018-07-27T06:40:34.818Z,7.30
2018-07-27T06:41:34.977Z,8.90
2018-07-27T06:42:35.134Z,7.30
2018-07-27T06:43:35.295Z,6.70
2018-07-27T06:44:35.453Z,6.70
2018-07-27T06:45:35.608Z,7.00
2018-07-27T06:46:35.773Z,8.20
2018-07-27T06:47:35.929Z,7.20
2018-07-27T06:48:36.089Z,9.10
2018-07-27T06:49:36.245Z,7.70
2018-07-27T06:50:36.408Z,7.40
2018-07-27T06:51:36.566Z,8.10
2018-07-27T06:52:36.722Z,7.90
2018-07-27T06:53:36.879Z,8.50
2018-07-27T06:54:37.040Z,8.10
2018-07-27T06:55:37.198Z,7.10
2018-07-27T06:56:37.356Z,7.60
2018-07-27T06:57:37.517Z,6.10
2018-07-27T06:58:37.675Z,7.90
2018-07-27T06:59:37.835Z,7.10
2018-07-27T07:00:37.994Z,6.60
2018-07-27T07:01:38.155Z,8.10
2018-07-27T07:02:38.318Z,6.90
2018-07-27T07:03:38.481Z,7.10
2018-07-27T07:04:38.635Z,8.00
2018-07-27T07:05:38.794Z,5.90
2018-07-27T07:06:38.952Z,6.50
2018-07-27T07:07:39.111Z,7.30
2018-07-27T07:08:39.272Z,7.40
2018-07-27T07:09:39.430Z,6.50
2018-07-27T07:10:39.587Z,5.80
2018-07-27T07:11:39.748Z,7.40
2018-07-27T07:12:39.908Z,7.90
2018-07-27T07:13:40.065Z,7.80
2018-07-27T07:14:40.226Z,6.40
2018-07-27T07:15:40.386Z,7.40
2018-07-27T07:16:40.547Z,6.20
2018-07-27T07:17:40.706Z,6.90
2018-07-27T07:18:40.864Z,6.90
2018-07-27T07:19:41.024Z,6.70
2018-07-27T07:20:41.184Z,7.80
2018-07-27T07:21:41.345Z,7.20
2018-07-27T07:22:41.510Z,7.20
2018-07-27T07:23:41.667Z,7.30
2018-07-27T07:24:41.827Z,6.00
2018-07-27T07:25:42.113Z,8.00
2018-07-27T07:26:42.147Z,7.50
2018-07-27T07:27:42.315Z,6.80
2018-07-27T07:28:42.469Z,6.40
2018-07-27T07:29:42.631Z,7.00
2018-07-27T07:30:42.788Z,6.30
2018-07-27T07:31:42.950Z,10.00
2018-07-27T07:32:43.111Z,5.50
2018-07-27T07:33:43.274Z,7.70
2018-07-27T07:34:43.433Z,6.20
2018-07-27T07:35:43.593Z,7.20
2018-07-27T07:36:43.752Z,6.50
2018-07-27T07:37:43.911Z,7.50
2018-07-27T07:38:44.072Z,7.30
2018-07-27T07:39:44.233Z,6.10
2018-07-27T07:40:44.392Z,6.50
2018-07-27T07:41:44.555Z,7.40
2018-07-27T07:42:44.716Z,5.40
2018-07-27T07:43:44.910Z,6.80
2018-07-27T07:44:45.038Z,6.10
2018-07-27T07:45:45.200Z,6.50
2018-07-27T07:46:45.360Z,6.40
2018-07-27T07:47:45.521Z,7.20
2018-07-27T07:48:45.683Z,6.30
2018-07-27T07:49:45.840Z,5.90
2018-07-27T07:50:46.001Z,6.00
2018-07-27T07:51:46.164Z,6.10
2018-07-27T07:52:46.328Z,6.20
2018-07-27T07:53:46.486Z,9.10
2018-07-27T07:54:46.649Z,6.10
2018-07-27T07:55:46.807Z,7.00
2018-07-27T07:56:46.971Z,7.50
2018-07-27T07:57:47.132Z,6.00
2018-07-27T07:58:47.300Z,6.20
2018-07-27T07:59:47.455Z,5.70
2018-07-27T08:00:47.616Z,6.80
2018-07-27T08:01:47.778Z,6.30
2018-07-27T08:02:47.940Z,6.50
2018-07-27T08:03:48.100Z,6.00
2018-07-27T08:04:48.265Z,9.30
2018-07-27T08:05:48.425Z,5.30
2018-07-27T08:06:48.602Z,5.60
2018-07-27T08:07:48.750Z,6.30
2018-07-27T08:08:48.912Z,5.80
2018-07-27T08:09:49.074Z,6.10
2018-07-27T08:10:49.235Z,5.70
2018-07-27T08:11:49.400Z,5.90
2018-07-27T08:12:49.558Z,5.20
2018-07-27T08:13:49.721Z,5.90
2018-07-27T08:14:49.881Z,6.10
2018-07-27T08:15:50.045Z,7.10
2018-07-27T08:16:50.204Z,8.20
2018-07-27T08:17:50.366Z,5.90
2018-07-27T08:18:50.529Z,7.80
2018-07-27T08:19:50.701Z,9.00
2018-07-27T08:20:50.858Z,5.40
2018-07-27T08:21:51.019Z,5.90
2018-07-27T08:22:51.180Z,6.00
2018-07-27T08:23:51.342Z,6.90
2018-07-27T08:24:51.504Z,5.90
2018-07-27T08:25:51.721Z,5.10
2018-07-27T08:26:51.831Z,4.80
2018-07-27T08:27:52.970Z,6.40
2018-07-27T08:28:52.151Z,4.90
2018-07-27T08:29:52.314Z,8.40
2018-07-27T08:30:52.479Z,6.30
2018-07-27T08:31:52.639Z,6.70
2018-07-27T08:32:52.800Z,6.80
2018-07-27T08:33:52.963Z,6.90
2018-07-27T08:34:53.125Z,6.10
2018-07-27T08:35:53.288Z,4.50
2018-07-27T08:36:53.450Z,5.90
2018-07-27T08:37:53.616Z,4.60
2018-07-27T08:38:53.835Z,4.40
2018-07-27T08:39:53.942Z,3.90
2018-07-27T08:40:54.103Z,5.90
2018-07-27T08:41:54.268Z,6.90
2018-07-27T08:42:54.431Z,4.30
2018-07-27T08:43:54.593Z,7.30
2018-07-27T08:44:54.756Z,4.20
2018-07-27T08:45:54.919Z,4.90
2018-07-27T08:46:55.082Z,5.80
2018-07-27T08:47:55.244Z,4.50
2018-07-27T08:48:55.408Z,6.20
2018-07-27T08:49:55.572Z,3.70
2018-07-27T08:50:55.734Z,3.40
2018-07-27T08:51:55.899Z,3.20
2018-07-27T08:52:56.064Z,3.80
2018-07-27T08:53:56.226Z,5.70
2018-07-27T08:54:56.388Z,3.90
2018-07-27T08:55:56.553Z,4.00
2018-07-27T08:56:56.715Z,4.40
2018-07-27T08:57:56.876Z,3.60
2018-07-27T08:58:57.043Z,3.60
2018-07-27T08:59:57.199Z,3.90
2018-07-27T09:00:57.364Z,3.80
2018-07-27T09:01:57.528Z,3.70
2018-07-27T09:02:57.692Z,5.00
2018-07-27T09:03:57.861Z,7.00
2018-07-27T09:04:58.022Z,3.90
2018-07-27T09:05:58.181Z,3.70
2018-07-27T09:06:58.345Z,3.50
2018-07-27T09:07:58.509Z,4.70
2018-07-27T09:08:58.670Z,4.00
2018-07-27T09:09:58.832Z,4.90
2018-07-27T09:10:58.993Z,4.10
2018-07-27T09:11:59.160Z,4.30
2018-07-27T09:12:59.325Z,3.50
2018-07-27T09:13:59.487Z,3.80
2018-07-27T09:14:59.678Z,5.00
2018-07-27T09:15:59.811Z,4.50
2018-07-27T09:16:59.976Z,3.30
2018-07-27T09:18:00.138Z,3.20
2018-07-27T09:19:00.300Z,3.90
2018-07-27T09:20:00.463Z,4.00
2018-07-27T09:21:00.632Z,4.00
2018-07-27T09:22:00.788Z,5.60
2018-07-27T09:23:00.953Z,4.80
2018-07-27T09:24:01.115Z,4.00
2018-07-27T09:25:01.460Z,3.90
2018-07-27T09:26:01.444Z,4.70
2018-07-27T09:27:01.612Z,4.60
2018-07-27T09:28:01.773Z,5.00
2018-07-27T09:29:01.936Z,5.10
2018-07-27T09:30:02.102Z,4.50
2018-07-27T09:31:02.266Z,4.60
2018-07-27T09:32:02.432Z,4.90
2018-07-27T09:33:02.592Z,6.60
2018-07-27T09:34:02.808Z,4.80
2018-07-27T09:35:02.932Z,5.90
2018-07-27T09:36:03.086Z,3.90
2018-07-27T09:37:03.253Z,4.50
2018-07-27T09:38:03.412Z,6.10
2018-07-27T09:39:03.579Z,4.10
2018-07-27T09:40:03.739Z,4.80
2018-07-27T09:41:03.900Z,6.20
2018-07-27T09:42:04.066Z,4.20
2018-07-27T09:43:04.226Z,7.20
2018-07-27T09:44:04.391Z,4.10
2018-07-27T09:45:04.558Z,7.60
2018-07-27T09:46:04.718Z,4.20
2018-07-27T09:47:04.890Z,4.50
2018-07-27T09:48:05.047Z,3.90
2018-07-27T09:49:05.210Z,5.10
2018-07-27T09:50:05.371Z,6.20
2018-07-27T09:51:05.534Z,4.50
2018-07-27T09:52:05.701Z,4.80
2018-07-27T09:53:05.864Z,5.00
2018-07-27T09:54:06.027Z,5.80
2018-07-27T09:55:06.193Z,4.70
2018-07-27T09:56:06.361Z,8.80
2018-07-27T09:57:06.521Z,5.60
2018-07-27T09:58:06.685Z,3.80
2018-07-27T09:59:06.852Z,4.80
2018-07-27T10:00:07.018Z,4.40
2018-07-27T10:01:07.188Z,4.50
2018-07-27T10:02:07.348Z,3.90
2018-07-27T10:03:07.511Z,4.30
2018-07-27T10:04:07.675Z,4.60
2018-07-27T10:05:07.840Z,3.70
2018-07-27T10:06:08.008Z,3.80
2018-07-27T10:07:08.167Z,4.60
2018-07-27T10:08:08.331Z,4.20
2018-07-27T10:09:08.497Z,3.80
2018-07-27T10:10:08.662Z,4.90
2018-07-27T10:11:08.825Z,5.40
2018-07-27T10:12:08.988Z,4.10
2018-07-27T10:13:09.151Z,3.60
2018-07-27T10:14:09.316Z,4.10
2018-07-27T10:15:09.477Z,4.30
2018-07-27T10:16:09.642Z,5.00
2018-07-27T10:17:09.806Z,3.50
2018-07-27T10:18:09.970Z,3.90
2018-07-27T10:19:10.133Z,3.60
2018-07-27T10:20:10.298Z,3.80
2018-07-27T10:21:10.460Z,4.90
2018-07-27T10:22:10.626Z,4.00
2018-07-27T10:23:10.791Z,3.90
2018-07-27T10:24:11.012Z,4.10
2018-07-27T10:25:11.121Z,4.80
2018-07-27T10:26:11.285Z,3.60
2018-07-27T10:27:11.450Z,4.20
2018-07-27T10:28:11.610Z,4.10
2018-07-27T10:29:11.785Z,4.30
2018-07-27T10:30:11.946Z,4.10
2018-07-27T10:31:12.130Z,5.20
2018-07-27T10:32:12.278Z,3.60
2018-07-27T10:33:12.440Z,3.70
2018-07-27T10:34:12.601Z,3.60
2018-07-27T10:35:12.768Z,3.60
2018-07-27T10:36:12.932Z,3.90
2018-07-27T10:37:13.098Z,3.20
2018-07-27T10:38:13.258Z,5.70
2018-07-27T10:39:13.459Z,3.30
2018-07-27T10:40:13.591Z,4.80
2018-07-27T10:41:13.758Z,3.60
2018-07-27T10:42:13.920Z,3.30
2018-07-27T10:43:14.089Z,5.10
2018-07-27T10:44:14.260Z,4.30
2018-07-27T10:45:14.434Z,4.10
2018-07-27T10:46:14.599Z,3.30
2018-07-27T10:47:14.763Z,3.60
2018-07-27T10:48:14.929Z,3.90
2018-07-27T10:49:15.092Z,4.40
2018-07-27T10:50:15.286Z,3.50
2018-07-27T10:51:15.421Z,3.20
2018-07-27T10:52:15.587Z,3.10
2018-07-27T10:53:15.759Z,5.80
2018-07-27T10:54:15.918Z,5.00
2018-07-27T10:55:16.081Z,3.60
2018-07-27T10:56:16.246Z,3.60
2018-07-27T10:57:16.412Z,3.90
2018-07-27T10:58:16.576Z,3.60
2018-07-27T10:59:16.740Z,3.90
2018-07-27T11:00:16.905Z,4.10
2018-07-27T11:01:17.069Z,3.10
2018-07-27T11:02:17.250Z,4.80
2018-07-27T11:03:17.402Z,4.90
2018-07-27T11:04:17.567Z,3.60
2018-07-27T11:05:17.732Z,4.30
2018-07-27T11:06:17.896Z,4.00
2018-07-27T11:07:18.063Z,4.60
2018-07-27T11:08:18.225Z,5.00
2018-07-27T11:09:18.391Z,4.90
2018-07-27T11:10:18.557Z,4.60
2018-07-27T11:11:18.719Z,4.70
2018-07-27T11:12:18.886Z,4.50
2018-07-27T11:13:19.050Z,3.50
2018-07-27T11:14:19.212Z,3.20
2018-07-27T11:15:19.401Z,3.50
2018-07-27T11:16:19.551Z,3.50
2018-07-27T11:17:19.748Z,4.30
2018-07-27T11:18:19.877Z,7.20
2018-07-27T11:19:20.043Z,4.80
2018-07-27T11:20:20.203Z,3.90
2018-07-27T11:21:20.368Z,3.90
2018-07-27T11:22:20.534Z,4.70
2018-07-27T11:23:20.699Z,4.80
2018-07-27T11:24:20.865Z,4.60
2018-07-27T11:25:21.027Z,5.80
2018-07-27T11:26:21.191Z,4.20
2018-07-27T11:27:21.355Z,4.70
2018-07-27T11:28:21.520Z,5.80
2018-07-27T11:29:21.683Z,5.90
2018-07-27T11:30:21.849Z,7.00
2018-07-27T11:31:22.011Z,5.60
2018-07-27T11:32:22.182Z,4.90
2018-07-27T11:33:22.344Z,3.70
2018-07-27T11:34:22.508Z,4.20
2018-07-27T11:35:22.675Z,5.30
2018-07-27T11:36:22.840Z,3.40
2018-07-27T11:37:23.050Z,4.10
2018-07-27T11:38:23.169Z,2.90
2018-07-27T11:39:23.338Z,3.20
2018-07-27T11:40:23.500Z,3.20
2018-07-27T11:41:23.665Z,3.30
2018-07-27T11:42:23.877Z,4.50
2018-07-27T11:43:23.996Z,5.10
2018-07-27T11:44:24.162Z,3.10
2018-07-27T11:45:24.325Z,4.00
2018-07-27T11:46:24.489Z,3.70
2018-07-27T11:47:24.654Z,3.60
2018-07-27T11:48:24.815Z,3.40
2018-07-27T11:49:25.025Z,3.20
2018-07-27T11:50:25.151Z,3.90
2018-07-27T11:51:25.312Z,4.40
2018-07-27T11:52:25.485Z,3.00
2018-07-27T11:53:25.649Z,4.10
2018-07-27T11:54:25.813Z,6.00
2018-07-27T11:55:25.980Z,2.90
2018-07-27T11:56:26.147Z,3.90
2018-07-27T11:57:26.324Z,4.80
2018-07-27T11:58:26.475Z,4.50
2018-07-27T11:59:26.644Z,4.70
2018-07-27T12:00:26.852Z,4.70
2018-07-27T12:01:26.993Z,3.70
2018-07-27T12:02:27.157Z,3.70
2018-07-27T12:03:27.323Z,4.20
2018-07-27T12:04:27.488Z,5.20
2018-07-27T12:05:27.648Z,3.50
2018-07-27T12:06:27.814Z,4.00
2018-07-27T12:07:27.980Z,4.10
2018-07-27T12:08:28.143Z,3.50
2018-07-27T12:09:28.310Z,4.30
2018-07-27T12:10:28.475Z,5.70
2018-07-27T12:11:28.642Z,3.40
2018-07-27T12:12:28.808Z,4.70
2018-07-27T12:13:28.973Z,4.70
2018-07-27T12:14:29.528Z,3.90
2018-07-27T12:15:29.303Z,5.00
2018-07-27T12:16:29.469Z,4.50
2018-07-27T12:17:29.633Z,3.30
2018-07-27T12:18:29.802Z,3.50
2018-07-27T12:19:29.965Z,4.90
2018-07-27T12:20:30.210Z,3.30
2018-07-27T12:21:30.429Z,3.40
2018-07-27T12:22:30.466Z,5.10
2018-07-27T12:23:30.631Z,3.60
2018-07-27T12:24:30.797Z,3.20
2018-07-27T12:25:30.964Z,3.20
2018-07-27T12:26:31.127Z,3.60
2018-07-27T12:27:31.298Z,4.40
2018-07-27T12:28:31.463Z,5.40
2018-07-27T12:29:31.628Z,3.30
2018-07-27T12:30:31.793Z,5.00
2018-07-27T12:31:31.958Z,5.30
2018-07-27T12:32:32.129Z,3.70
2018-07-27T12:33:32.289Z,3.30
2018-07-27T12:34:32.464Z,4.40
2018-07-27T12:35:32.633Z,3.60
2018-07-27T12:36:32.798Z,5.70
2018-07-27T12:37:32.968Z,5.00
2018-07-27T12:38:33.135Z,3.40
2018-07-27T12:39:33.302Z,5.30
2018-07-27T12:40:33.467Z,4.10
2018-07-27T12:41:33.631Z,5.10
2018-07-27T12:42:33.811Z,5.30
2018-07-27T12:43:33.964Z,4.40
2018-07-27T12:44:34.132Z,4.80
2018-07-27T12:45:34.297Z,5.50
2018-07-27T12:46:34.461Z,3.40
2018-07-27T12:47:34.629Z,4.00
2018-07-27T12:48:34.794Z,4.80
2018-07-27T12:49:34.958Z,4.80
2018-07-27T12:50:35.125Z,3.20
2018-07-27T12:51:35.292Z,6.60
2018-07-27T12:52:35.461Z,3.70
2018-07-27T12:53:35.626Z,3.80
2018-07-27T12:54:35.793Z,4.50
2018-07-27T12:55:35.956Z,3.10
2018-07-27T12:56:36.123Z,3.50
2018-07-27T12:57:36.293Z,4.20
2018-07-27T12:58:36.458Z,3.50
2018-07-27T12:59:36.632Z,4.00
2018-07-27T13:00:36.788Z,4.00
2018-07-27T13:01:36.953Z,3.70
2018-07-27T13:02:37.119Z,4.00
2018-07-27T13:03:37.281Z,4.70
2018-07-27T13:04:37.449Z,6.60
2018-07-27T13:05:37.612Z,3.80
2018-07-27T13:06:37.784Z,4.50
2018-07-27T13:07:37.943Z,5.50
2018-07-27T13:08:38.109Z,4.70
2018-07-27T13:09:38.272Z,4.70
2018-07-27T13:10:38.466Z,4.30
2018-07-27T13:11:38.603Z,3.70
2018-07-27T13:12:38.769Z,3.40
2018-07-27T13:13:38.935Z,4.60
2018-07-27T13:14:39.096Z,3.70
2018-07-27T13:15:39.260Z,3.80